Time;durP1;ratioP1;P1;durP2;ratioP2;P2;SDS_P1;SDS_P2;PMS_P1;PMS_P2;Temp;Humidity;BMP_temperature;BMP_pressure;BME280_temperature;BME280_humidity;BME280_pressure;Samples;Min_cycle;Max_cycle;Signal;HPM_P1;HPM_P2
2021/05/31 04:31:08;;;;;;;13.35;9.28;;;;;;;9.01;89.93;98212.63;1890021;76;22565;-68
2021/05/31 04:33:35;;;;;;;7.97;5.80;;;;;;;9.01;89.81;98213.96;1861004;77;20912;-67
2021/05/31 04:36:03;;;;;;;6.17;4.62;;;;;;;9.09;89.78;98208.06;1861103;77;21074;-67
2021/05/31 04:38:31;;;;;;;8.43;4.20;;;;;;;9.17;89.52;98206.12;1860998;77;20941;-66
2021/05/31 04:40:58;;;;;;;6.90;4.05;;;;;;;9.29;89.33;98214.09;1861177;77;21331;-66
2021/05/31 04:43:25;;;;;;;8.70;4.17;;;;;;;9.41;89.25;98213.22;1861064;77;20897;-68
2021/05/31 04:45:54;;;;;;;7.45;3.83;;;;;;;9.57;89.18;98214.70;1861007;77;21368;-67
2021/05/31 04:48:21;;;;;;;5.80;4.50;;;;;;;9.73;88.93;98210.59;1861080;77;21774;-67
2021/05/31 04:50:55;;;;;;;5.85;4.40;;;;;;;9.87;88.59;98212.33;1861085;77;21332;-67
2021/05/31 04:53:17;;;;;;;4.08;3.65;;;;;;;10.00;88.28;98209.03;1859857;77;20897;-66
2021/05/31 04:55:44;;;;;;;4.67;3.37;;;;;;;10.14;87.88;98213.22;1861023;77;21435;-67
2021/05/31 04:58:11;;;;;;;4.85;3.80;;;;;;;10.28;87.50;98211.47;1860962;77;21017;-69
2021/05/31 05:00:38;;;;;;;7.42;3.60;;;;;;;10.39;87.24;98211.63;1861017;77;21060;-68
2021/05/31 05:03:05;;;;;;;4.85;3.90;;;;;;;10.50;86.63;98211.80;1861093;77;21311;-69
2021/05/31 05:05:33;;;;;;;6.45;3.77;;;;;;;10.54;85.52;98215.50;1861052;77;20940;-68
2021/05/31 05:08:00;;;;;;;8.50;3.60;;;;;;;10.57;85.03;98220.30;1860909;77;20953;-70
2021/05/31 05:10:27;;;;;;;9.75;3.85;;;;;;;10.64;84.71;98213.25;1860929;77;21444;-66
2021/05/31 05:12:54;;;;;;;7.83;3.62;;;;;;;10.71;84.40;98221.74;1861003;77;21423;-69
2021/05/31 05:15:22;;;;;;;5.67;4.22;;;;;;;10.78;84.02;98218.17;1861027;77;20969;-68
2021/05/31 05:17:49;;;;;;;5.95;4.33;;;;;;;10.87;83.68;98226.64;1860879;77;20957;-70
2021/05/31 05:20:18;;;;;;;7.28;4.30;;;;;;;10.94;83.42;98227.09;1861108;77;21487;-68
2021/05/31 05:22:45;;;;;;;9.73;3.80;;;;;;;11.03;82.95;98229.12;1860753;77;21411;-65
2021/05/31 05:25:13;;;;;;;7.37;3.65;;;;;;;11.10;82.42;98225.55;1860466;77;21488;-68
2021/05/31 05:27:43;;;;;;;6.45;3.83;;;;;;;11.15;81.87;98226.30;1859612;77;21000;-65
2021/05/31 05:30:13;;;;;;;5.87;3.83;;;;;;;11.18;81.33;98231.09;1853877;77;21104;-64
2021/05/31 05:32:47;;;;;;;4.92;3.85;;;;;;;11.26;81.25;98222.95;1849522;77;20937;-65
2021/05/31 05:35:21;;;;;;;6.65;4.05;;;;;;;11.33;80.76;98224.73;1848900;77;21530;-67
2021/05/31 05:38:01;;;;;;;12.25;3.98;;;;;;;11.38;80.34;98225.97;1848921;77;21468;-69
2021/05/31 05:43:20;;;;;;;6.65;4.15;;;;;;;11.53;79.71;98229.80;1849348;77;20862;-68
2021/05/31 05:48:07;;;;;;;7.15;4.25;;;;;;;11.74;78.78;98225.76;1849457;77;20867;-68
2021/05/31 05:50:42;;;;;;;8.60;4.10;;;;;;;11.83;78.39;98228.56;1836037;76;21061;-68
2021/05/31 05:53:09;;;;;;;5.60;3.83;;;;;;;11.90;78.41;98227.65;1839644;77;25693;-68
2021/05/31 05:55:36;;;;;;;7.87;3.50;;;;;;;11.97;78.12;98226.19;1826615;76;21097;-67
2021/05/31 05:58:03;;;;;;;5.85;3.27;;;;;;;12.05;77.51;98228.22;1829450;76;21040;-69
2021/05/31 06:00:31;;;;;;;7.92;3.42;;;;;;;12.10;77.40;98233.51;1841624;77;20984;-69
2021/05/31 06:02:58;;;;;;;7.35;3.50;;;;;;;12.21;77.14;98224.72;1848864;77;21067;-67
2021/05/31 06:05:25;;;;;;;7.90;3.35;;;;;;;12.31;76.61;98228.05;1848337;77;21439;-67
2021/05/31 06:07:53;;;;;;;5.37;3.58;;;;;;;12.40;75.77;98226.81;1848631;77;21499;-67
2021/05/31 06:10:24;;;;;;;9.75;3.33;;;;;;;12.48;75.31;98226.14;1837907;77;21116;-66
2021/05/31 06:12:52;;;;;;;4.65;2.50;;;;;;;12.54;75.02;98228.16;1828945;76;21509;-65
2021/05/31 06:15:21;;;;;;;10.65;2.90;;;;;;;12.61;74.39;98230.72;1820770;76;21531;-69
2021/05/31 06:17:50;;;;;;;4.60;2.50;;;;;;;12.68;73.22;98227.63;1830850;77;21013;-67
2021/05/31 06:20:18;;;;;;;5.15;2.40;;;;;;;12.75;72.74;98227.50;1760986;80;20962;-66
2021/05/31 06:22:45;;;;;;;4.75;2.65;;;;;;;12.81;71.60;98230.89;1760402;81;21012;-62
2021/05/31 06:25:12;;;;;;;5.00;2.30;;;;;;;12.85;70.79;98225.16;1759412;80;21608;-69
2021/05/31 06:27:40;;;;;;;6.87;2.55;;;;;;;12.88;69.85;98226.69;1773590;80;21614;-67
2021/05/31 06:30:10;;;;;;;7.58;2.33;;;;;;;12.92;69.30;98221.52;1771910;79;21566;-66
2021/05/31 06:32:40;;;;;;;2.92;1.90;;;;;;;12.94;68.68;98227.39;1790926;78;20929;-66
2021/05/31 06:35:12;;;;;;;6.25;2.40;;;;;;;12.97;67.99;98227.60;1766100;80;21021;-66
2021/05/31 06:37:40;;;;;;;6.47;2.10;;;;;;;13.02;67.49;98221.33;1822523;78;20962;-68
2021/05/31 06:40:12;;;;;;;5.42;1.87;;;;;;;13.08;66.07;98222.03;1753327;80;20998;-66
2021/05/31 06:42:41;;;;;;;5.70;2.02;;;;;;;13.10;65.55;98216.60;1810774;78;20931;-65
2021/05/31 06:45:16;;;;;;;5.05;1.92;;;;;;;13.12;63.56;98220.36;1815894;78;21622;-65
2021/05/31 06:47:44;;;;;;;5.03;1.90;;;;;;;13.11;63.34;98220.89;1760298;80;21089;-68
2021/05/31 06:50:13;;;;;;;5.08;1.95;;;;;;;13.11;62.19;98223.58;1752795;81;20938;-62
2021/05/31 06:52:43;;;;;;;4.03;1.75;;;;;;;13.15;62.09;98212.47;1766748;80;21029;-62
2021/05/31 06:55:13;;;;;;;6.33;1.85;;;;;;;13.26;62.14;98211.14;1785230;80;20989;-62
2021/05/31 06:57:40;;;;;;;7.37;2.10;;;;;;;13.37;61.03;98207.16;1764000;80;22149;-60
2021/05/31 07:00:10;;;;;;;4.00;1.82;;;;;;;13.46;60.89;98214.75;1787143;78;21051;-66
2021/05/31 07:02:37;;;;;;;3.87;1.80;;;;;;;13.51;59.45;98209.26;1798572;79;20913;-67
2021/05/31 07:05:07;;;;;;;4.70;1.75;;;;;;;13.54;58.55;98219.97;1784001;80;21129;-66
2021/05/31 07:07:35;;;;;;;4.45;1.80;;;;;;;13.58;58.51;98210.98;1786668;79;21099;-68
2021/05/31 07:10:05;;;;;;;4.85;1.87;;;;;;;13.64;58.87;98208.41;1779895;80;20945;-68
2021/05/31 07:12:33;;;;;;;4.22;1.80;;;;;;;13.77;59.22;98203.28;1780146;80;20954;-66
2021/05/31 07:15:03;;;;;;;10.70;2.00;;;;;;;13.84;58.91;98206.34;1793867;79;21063;-66
2021/05/31 07:17:30;;;;;;;6.28;2.02;;;;;;;13.87;58.33;98207.09;1811656;79;21145;-69
2021/05/31 07:19:57;;;;;;;7.55;1.90;;;;;;;13.85;57.43;98210.06;1809464;79;20966;-63
2021/05/31 07:22:24;;;;;;;7.28;1.60;;;;;;;13.91;57.44;98214.79;1790515;79;20973;-67
2021/05/31 07:24:51;;;;;;;4.67;2.17;;;;;;;13.97;56.64;98207.63;1805416;79;21189;-65
2021/05/31 07:27:23;;;;;;;5.85;1.90;;;;;;;14.08;55.52;98208.19;1779238;80;21534;-64
2021/05/31 07:29:56;;;;;;;3.17;1.52;;;;;;;14.20;54.88;98201.69;1778713;79;21567;-65
2021/05/31 07:32:25;;;;;;;5.55;1.50;;;;;;;14.26;52.99;98212.02;1743423;81;21582;-64
2021/05/31 07:34:53;;;;;;;5.20;1.62;;;;;;;14.30;51.75;98207.63;1780619;79;21505;-66
2021/05/31 07:37:20;;;;;;;3.70;1.65;;;;;;;14.32;51.28;98216.19;1823772;77;21020;-63
2021/05/31 07:39:51;;;;;;;5.53;1.70;;;;;;;14.24;51.51;98214.23;1830057;76;21413;-62
2021/05/31 07:42:18;;;;;;;4.53;1.67;;;;;;;14.16;51.42;98214.96;1830745;77;21778;-63
2021/05/31 07:44:46;;;;;;;4.33;1.65;;;;;;;14.09;52.59;98217.84;1848967;77;21086;-64
2021/05/31 07:47:13;;;;;;;4.40;2.20;;;;;;;14.05;53.30;98214.17;1844800;77;20926;-68
2021/05/31 07:49:40;;;;;;;3.80;1.50;;;;;;;14.03;53.29;98208.30;1838538;77;21539;-66
2021/05/31 07:52:18;;;;;;;6.25;1.40;;;;;;;13.96;53.84;98210.63;1838197;77;20965;-66
2021/05/31 07:54:36;;;;;;;7.58;1.57;;;;;;;13.87;52.20;98212.47;1820325;77;21214;-64
2021/05/31 07:57:04;;;;;;;3.30;1.07;;;;;;;13.79;51.20;98213.19;1823131;77;21030;-62
2021/05/31 07:59:31;;;;;;;2.72;1.42;;;;;;;13.83;51.67;98215.51;1841741;76;21119;-62
2021/05/31 08:01:58;;;;;;;5.10;2.05;;;;;;;13.94;51.87;98220.92;1844994;77;20957;-66
2021/05/31 08:04:28;;;;;;;2.87;1.65;;;;;;;14.04;51.54;98216.61;1844696;77;21375;-64
2021/05/31 08:06:59;;;;;;;9.55;1.92;;;;;;;14.17;52.30;98209.03;1846322;77;21764;-64
2021/05/31 08:09:26;;;;;;;6.72;1.65;;;;;;;14.25;51.56;98222.54;1836554;77;20894;-64
2021/05/31 08:11:54;;;;;;;4.35;1.30;;;;;;;14.20;50.69;98214.58;1780770;80;20942;-66
2021/05/31 08:14:24;;;;;;;3.58;1.50;;;;;;;14.11;51.17;98216.97;1810917;79;21562;-66
2021/05/31 08:16:52;;;;;;;4.10;1.50;;;;;;;14.09;51.22;98215.14;1744560;80;20962;-66
2021/05/31 08:19:19;;;;;;;7.40;1.80;;;;;;;14.16;51.05;98215.50;1772289;80;21063;-68
2021/05/31 08:21:49;;;;;;;5.28;1.25;;;;;;;14.21;51.31;98201.91;1808339;78;21485;-67
2021/05/31 08:24:19;;;;;;;6.50;1.22;;;;;;;14.17;49.55;98215.22;1794918;79;21440;-63
2021/05/31 08:26:46;;;;;;;5.97;1.22;;;;;;;14.04;49.17;98220.11;1748196;80;20934;-66
2021/05/31 08:29:14;;;;;;;5.37;1.65;;;;;;;13.92;49.78;98220.44;1843172;77;21610;-66
2021/05/31 08:31:41;;;;;;;6.75;1.52;;;;;;;13.84;49.98;98223.84;1853850;77;21004;-65
2021/05/31 08:34:09;;;;;;;2.87;1.37;;;;;;;13.88;49.81;98220.78;1858859;77;21117;-71
2021/05/31 08:36:37;;;;;;;3.67;1.52;;;;;;;14.03;50.48;98216.38;1851703;77;21508;-68
2021/05/31 08:39:07;;;;;;;6.85;2.42;;;;;;;14.25;49.22;98217.70;1812975;78;20969;-63
2021/05/31 08:41:35;;;;;;;3.80;1.50;;;;;;;14.45;48.91;98215.88;1803375;78;21049;-63
2021/05/31 08:44:05;;;;;;;8.43;1.52;;;;;;;14.57;47.96;98216.09;1814745;79;21095;-64
2021/05/31 08:46:35;;;;;;;9.70;1.62;;;;;;;14.56;48.51;98216.38;1816781;78;20985;-66
2021/05/31 08:49:04;;;;;;;3.77;1.50;;;;;;;14.50;48.45;98214.39;1852038;77;20890;-63
2021/05/31 08:51:32;;;;;;;8.35;1.60;;;;;;;14.51;48.06;98211.16;1850062;77;20942;-65
2021/05/31 08:54:03;;;;;;;4.45;1.60;;;;;;;14.60;47.93;98204.67;1720784;80;21021;-64
2021/05/31 08:56:54;;;;;;;7.03;1.60;;;;;;;14.80;48.98;98196.05;1778054;80;21114;-65
2021/05/31 08:59:43;;;;;;;3.12;1.40;;;;;;;15.11;47.61;98204.61;1752865;80;21085;-66
2021/05/31 09:02:18;;;;;;;3.80;1.60;;;;;;;15.43;46.28;98201.48;1777451;79;21052;-65
2021/05/31 09:05:04;;;;;;;8.35;1.50;;;;;;;15.63;46.29;98191.45;1824228;77;20970;-64
2021/05/31 09:07:41;;;;;;;2.85;1.32;;;;;;;15.85;47.35;98190.50;1848692;76;21522;-62
2021/05/31 09:10:17;;;;;;;6.05;1.30;;;;;;;16.03;47.46;98204.22;1811652;77;21505;-67
2021/05/31 09:13:00;;;;;;;4.72;1.35;;;;;;;16.21;45.44;98205.21;1839111;77;21479;-65
2021/05/31 09:15:29;;;;;;;6.05;1.50;;;;;;;16.36;46.56;98196.61;1856884;77;20897;-64
2021/05/31 09:17:57;;;;;;;7.75;1.37;;;;;;;16.58;45.13;98188.05;1823032;77;20953;-65
2021/05/31 09:20:26;;;;;;;3.47;1.50;;;;;;;16.73;46.10;98183.44;1822638;78;21054;-63
2021/05/31 09:22:55;;;;;;;3.45;1.35;;;;;;;16.84;46.42;98192.80;1822577;78;21039;-64
2021/05/31 09:25:32;;;;;;;2.62;1.40;;;;;;;16.88;44.64;98184.25;1796307;78;21080;-67
2021/05/31 09:28:11;;;;;;;5.58;1.80;;;;;;;16.84;43.53;98188.73;1821895;78;21009;-66
2021/05/31 09:30:44;;;;;;;4.55;1.40;;;;;;;16.61;43.22;98184.12;1821181;78;21629;-63
2021/05/31 09:33:16;;;;;;;3.40;1.40;;;;;;;16.35;42.66;98192.30;1837190;77;20969;-63
2021/05/31 09:35:45;;;;;;;6.75;1.50;;;;;;;16.01;43.17;98188.34;1849233;77;21053;-66
2021/05/31 09:38:15;;;;;;;5.08;1.57;;;;;;;15.75;45.30;98195.66;1803878;79;20947;-64
2021/05/31 09:40:52;;;;;;;4.72;1.60;;;;;;;15.75;46.79;98188.91;1761335;81;20921;-66
2021/05/31 09:43:21;;;;;;;6.47;1.52;;;;;;;15.87;45.51;98185.56;1744067;82;21470;-66
2021/05/31 09:45:49;;;;;;;6.28;1.40;;;;;;;16.03;45.91;98185.30;1814442;79;21098;-66
2021/05/31 09:48:16;;;;;;;7.55;1.50;;;;;;;16.04;44.77;98184.20;1819291;76;21275;-64
2021/05/31 09:51:00;;;;;;;4.97;1.50;;;;;;;16.07;45.59;98193.80;1834288;77;21562;-62
2021/05/31 09:53:37;;;;;;;7.55;1.47;;;;;;;16.19;43.99;98187.18;1846107;77;21084;-62
2021/05/31 09:56:16;;;;;;;3.30;1.40;;;;;;;16.33;44.10;98189.13;1805820;78;21008;-62
2021/05/31 09:59:02;;;;;;;8.78;1.98;;;;;;;16.59;44.57;98190.98;1814517;79;21455;-63
2021/05/31 10:01:42;;;;;;;3.98;1.55;;;;;;;16.78;44.03;98188.67;1813152;79;21075;-69
2021/05/31 10:04:32;;;;;;;2.80;1.50;;;;;;;16.95;44.25;98189.95;1830972;77;21028;-65
2021/05/31 10:07:18;;;;;;;2.85;1.50;;;;;;;17.10;42.99;98179.90;1830506;77;21245;-63
2021/05/31 10:09:32;;;;;;;4.70;1.47;;;;;;;17.22;44.03;98175.92;1817873;77;20989;-65
2021/05/31 10:12:01;;;;;;;7.35;1.45;;;;;;;17.35;44.13;98181.66;1848426;77;20882;-62
2021/05/31 10:14:29;;;;;;;11.35;1.40;;;;;;;17.46;41.08;98188.27;1842652;77;21419;-65
2021/05/31 10:16:59;;;;;;;3.02;1.22;;;;;;;17.47;40.95;98191.22;1837693;77;21041;-67
2021/05/31 10:19:34;;;;;;;7.58;1.37;;;;;;;17.47;39.15;98185.80;1825351;77;20882;-68
2021/05/31 10:22:04;;;;;;;5.28;1.20;;;;;;;17.46;39.38;98174.72;1825095;77;20966;-65
2021/05/31 10:24:34;;;;;;;3.35;1.20;;;;;;;17.61;40.70;98166.05;1814484;78;20965;-64
2021/05/31 10:27:09;;;;;;;6.28;1.30;;;;;;;17.75;40.59;98166.56;1815566;78;21123;-71
2021/05/31 10:29:46;;;;;;;5.30;1.12;;;;;;;17.62;40.86;98175.74;1817946;77;21032;-64
2021/05/31 10:32:19;;;;;;;7.55;1.40;;;;;;;17.34;41.95;98176.00;1830130;76;21606;-65
2021/05/31 10:34:52;;;;;;;6.97;1.10;;;;;;;17.15;42.92;98179.71;1832652;77;20997;-64
2021/05/31 10:37:33;;;;;;;5.90;1.02;;;;;;;17.06;41.56;98181.68;1821924;78;21080;-65
2021/05/31 10:40:21;;;;;;;2.67;1.10;;;;;;;16.89;41.19;98179.06;1830025;76;21136;-66
2021/05/31 10:43:06;;;;;;;5.33;1.40;;;;;;;16.73;41.73;98173.97;1822316;78;21164;-64
2021/05/31 10:45:51;;;;;;;5.33;1.10;;;;;;;16.58;42.50;98167.77;1795426;78;21120;-63
2021/05/31 10:48:49;;;;;;;5.70;1.52;;;;;;;16.53;43.70;98166.59;1826166;76;21248;-65
2021/05/31 10:51:28;;;;;;;5.85;1.30;;;;;;;16.57;43.10;98177.80;1852011;77;20973;-65
2021/05/31 10:54:16;;;;;;;2.85;1.10;;;;;;;16.52;42.57;98177.16;1857134;77;21564;-67
2021/05/31 10:56:45;;;;;;;2.50;1.30;;;;;;;16.36;41.83;98179.03;1838817;77;21079;-68
2021/05/31 10:59:24;;;;;;;3.87;1.22;;;;;;;16.16;42.75;98183.76;1857444;77;20945;-67
2021/05/31 11:01:52;;;;;;;4.30;1.20;;;;;;;16.01;43.20;98184.28;1830915;77;21043;-68
2021/05/31 11:04:23;;;;;;;6.08;1.37;;;;;;;15.90;43.72;98180.30;1839326;77;21057;-67
2021/05/31 11:06:53;;;;;;;6.72;1.40;;;;;;;15.92;43.93;98175.38;1824805;77;21024;-67
2021/05/31 11:09:33;;;;;;;4.22;1.20;;;;;;;16.09;43.69;98174.55;1821400;78;21545;-66
2021/05/31 11:12:05;;;;;;;4.33;1.20;;;;;;;16.39;43.09;98170.26;1808781;78;20997;-69
2021/05/31 11:14:43;;;;;;;4.37;1.10;;;;;;;16.73;42.20;98166.66;1810493;78;21037;-69
2021/05/31 11:17:15;;;;;;;5.10;1.27;;;;;;;17.08;43.64;98164.55;1809162;78;21511;-64
2021/05/31 11:19:47;;;;;;;6.85;1.12;;;;;;;17.40;42.92;98157.11;1837513;77;21523;-65
2021/05/31 11:22:24;;;;;;;6.55;1.50;;;;;;;17.56;40.92;98164.89;1837761;78;21029;-64
2021/05/31 11:25:19;;;;;;;5.62;1.27;;;;;;;17.51;40.44;98162.38;1839693;77;21507;-65
2021/05/31 11:27:53;;;;;;;3.40;0.98;;;;;;;17.35;39.21;98156.50;1831894;77;21151;-65
2021/05/31 11:30:24;;;;;;;6.17;1.32;;;;;;;17.04;40.08;98171.75;1808187;79;20996;-65
2021/05/31 11:32:59;;;;;;;3.25;1.12;;;;;;;16.82;40.38;98172.02;1800054;77;21724;-62
2021/05/31 11:35:33;;;;;;;6.08;1.72;;;;;;;16.63;40.54;98171.66;1820061;77;20875;-63
2021/05/31 11:38:08;;;;;;;4.85;1.82;;;;;;;16.43;40.33;98175.27;1835765;77;21097;-63
2021/05/31 11:40:42;;;;;;;3.10;1.82;;;;;;;16.29;41.62;98177.39;1832320;78;20922;-64
2021/05/31 11:43:16;;;;;;;4.05;2.02;;;;;;;16.23;41.71;98177.86;1823397;77;21598;-62
2021/05/31 11:45:46;;;;;;;4.95;1.45;;;;;;;16.21;40.89;98174.14;1836189;76;21093;-63
2021/05/31 11:48:18;;;;;;;1.92;0.98;;;;;;;16.17;41.05;98177.25;1838262;78;20912;-63
2021/05/31 11:50:50;;;;;;;4.37;1.30;;;;;;;16.15;40.94;98171.93;1838268;78;21458;-66
2021/05/31 11:53:27;;;;;;;2.17;1.22;;;;;;;16.12;40.85;98175.27;1838994;77;21492;-62
2021/05/31 11:56:01;;;;;;;6.67;1.40;;;;;;;16.13;41.41;98170.88;1779548;80;21077;-63
2021/05/31 11:58:35;;;;;;;4.03;1.30;;;;;;;16.20;41.76;98161.73;1766612;78;21045;-63
2021/05/31 12:01:08;;;;;;;4.35;1.65;;;;;;;16.38;42.29;98156.52;1713830;81;21649;-63
2021/05/31 12:03:40;;;;;;;2.92;1.37;;;;;;;16.87;41.13;98165.08;1717624;83;21907;-62
2021/05/31 12:06:17;;;;;;;6.85;1.67;;;;;;;17.49;39.87;98151.06;1730714;82;21170;-63
2021/05/31 12:08:53;;;;;;;5.85;1.15;;;;;;;18.01;38.17;98147.34;1722937;82;21463;-64
2021/05/31 12:11:25;;;;;;;2.30;0.98;;;;;;;18.38;38.60;98150.92;1752969;81;21116;-64
2021/05/31 12:14:03;;;;;;;4.87;0.90;;;;;;;18.77;35.13;98150.30;1754066;80;20926;-63
2021/05/31 12:16:36;;;;;;;3.30;1.10;;;;;;;19.20;35.76;98152.97;1743678;80;20978;-61
2021/05/31 12:19:18;;;;;;;7.33;1.20;;;;;;;19.64;33.26;98146.57;1828512;78;20958;-61
2021/05/31 12:21:46;;;;;;;7.37;1.10;;;;;;;19.94;33.24;98143.72;1742496;81;21549;-63
2021/05/31 12:24:25;;;;;;;2.42;1.12;;;;;;;19.88;33.74;98139.66;1827806;78;21589;-63
2021/05/31 12:26:58;;;;;;;5.37;1.40;;;;;;;19.80;35.10;98143.33;1818482;78;21004;-63
2021/05/31 12:29:38;;;;;;;2.65;1.00;;;;;;;19.54;36.31;98144.33;1777178;79;21164;-62
2021/05/31 12:32:21;;;;;;;4.17;1.00;;;;;;;19.17;35.19;98153.11;1777448;79;21097;-64
2021/05/31 12:34:50;;;;;;;2.77;1.42;;;;;;;18.68;35.55;98157.75;1807921;79;20914;-64
2021/05/31 12:37:35;;;;;;;2.60;1.22;;;;;;;18.23;35.82;98157.78;1779056;79;21695;-61
2021/05/31 12:40:12;;;;;;;2.75;1.10;;;;;;;17.87;36.54;98154.98;1767980;79;20933;-63
2021/05/31 12:42:39;;;;;;;5.42;1.22;;;;;;;17.52;36.91;98149.05;1834216;78;21369;-62
2021/05/31 12:45:12;;;;;;;2.50;0.93;;;;;;;17.25;37.61;98152.27;1817444;77;21088;-63
2021/05/31 12:47:44;;;;;;;2.03;1.10;;;;;;;17.08;38.02;98153.73;1837783;77;20889;-61
2021/05/31 12:50:29;;;;;;;6.65;1.00;;;;;;;16.90;37.80;98152.25;1766907;80;21065;-63
2021/05/31 12:53:08;;;;;;;5.45;1.40;;;;;;;16.75;38.09;98148.74;1767327;80;20977;-65
2021/05/31 12:55:44;;;;;;;1.98;1.12;;;;;;;16.60;38.80;98152.02;1764696;79;20902;-64
2021/05/31 12:58:16;;;;;;;6.47;1.32;;;;;;;16.52;39.41;98159.59;1770676;80;21100;-65
2021/05/31 13:00:44;;;;;;;5.37;1.22;;;;;;;16.41;40.83;98151.83;1735570;82;20993;-65
2021/05/31 13:03:13;;;;;;;2.58;1.20;;;;;;;16.37;40.47;98153.57;1735678;82;21042;-65
2021/05/31 13:05:41;;;;;;;3.17;1.47;;;;;;;16.33;40.74;98158.05;1735021;82;21104;-64
2021/05/31 13:08:11;;;;;;;3.20;1.22;;;;;;;16.27;40.88;98159.32;1747800;81;21675;-61
2021/05/31 13:10:47;;;;;;;6.05;1.57;;;;;;;16.25;40.39;98151.33;1768320;81;21143;-61
2021/05/31 13:13:22;;;;;;;7.03;1.40;;;;;;;16.22;40.37;98153.31;1716798;81;21602;-61
2021/05/31 13:15:58;;;;;;;6.92;1.25;;;;;;;16.23;40.95;98148.93;1741513;81;21248;-63
2021/05/31 13:18:29;;;;;;;5.72;1.62;;;;;;;16.30;40.15;98142.47;1722227;83;21677;-62
2021/05/31 13:21:12;;;;;;;2.80;1.20;;;;;;;16.36;41.12;98141.74;1742037;82;21100;-63
2021/05/31 13:23:40;;;;;;;2.72;1.40;;;;;;;16.45;41.65;98137.09;1722765;83;21033;-62
2021/05/31 13:26:23;;;;;;;5.55;1.45;;;;;;;16.55;41.14;98141.37;1723100;83;21572;-63
2021/05/31 13:28:56;;;;;;;7.08;1.80;;;;;;;16.66;41.55;98142.59;1712969;81;21421;-62
2021/05/31 13:31:23;;;;;;;7.08;1.77;;;;;;;16.80;40.62;98137.74;1723239;82;21354;-62
2021/05/31 13:33:53;;;;;;;5.87;1.87;;;;;;;16.92;40.78;98136.48;1720303;83;21355;-62
2021/05/31 13:36:26;;;;;;;4.33;1.60;;;;;;;17.04;39.87;98129.80;1719168;81;21234;-62
2021/05/31 13:39:14;;;;;;;2.80;1.20;;;;;;;17.33;39.57;98131.13;1789535;80;21150;-63
2021/05/31 13:41:52;;;;;;;6.30;1.60;;;;;;;17.85;38.86;98129.34;1790048;80;21106;-62
2021/05/31 13:44:21;;;;;;;4.20;1.30;;;;;;;18.48;36.91;98124.76;1790668;80;21550;-64
2021/05/31 13:46:47;;;;;;;5.08;1.37;;;;;;;18.91;37.11;98122.25;1786807;80;20905;-63
2021/05/31 13:49:16;;;;;;;2.33;1.20;;;;;;;19.45;36.58;98123.31;1789268;79;20985;-65
2021/05/31 13:51:54;;;;;;;6.50;1.20;;;;;;;19.96;34.82;98116.17;1773857;80;21153;-64
2021/05/31 13:54:23;;;;;;;4.75;1.12;;;;;;;20.36;34.67;98112.79;1775029;80;21140;-62
2021/05/31 13:56:53;;;;;;;3.47;1.00;;;;;;;20.63;32.50;98114.64;1783783;80;21111;-65
2021/05/31 13:59:23;;;;;;;3.35;1.20;;;;;;;20.78;33.31;98106.22;1787630;80;20995;-62
2021/05/31 14:01:51;;;;;;;7.03;1.30;;;;;;;21.08;32.20;98111.41;1789961;80;21088;-62
2021/05/31 14:04:19;;;;;;;5.60;1.27;;;;;;;21.37;32.38;98109.52;1789854;79;21123;-62
2021/05/31 14:06:46;;;;;;;7.05;1.37;;;;;;;21.71;32.32;98101.86;1778733;80;21255;-63
2021/05/31 14:09:15;;;;;;;1.80;0.90;;;;;;;22.09;31.29;98093.44;1753489;79;21494;-64
2021/05/31 14:11:47;;;;;;;3.85;1.17;;;;;;;22.43;30.46;98089.72;1756983;81;21684;-63
2021/05/31 14:14:14;;;;;;;7.35;1.30;;;;;;;22.63;29.26;98089.11;1760160;81;21578;-63
2021/05/31 14:16:43;;;;;;;8.35;1.35;;;;;;;22.64;28.01;98081.91;1760312;81;21565;-64
2021/05/31 14:19:10;;;;;;;4.20;1.00;;;;;;;22.22;28.70;98090.73;1760329;81;21457;-64
2021/05/31 14:21:37;;;;;;;2.17;1.00;;;;;;;21.86;29.10;98094.75;1743327;81;21625;-66
2021/05/31 14:24:05;;;;;;;3.77;0.90;;;;;;;21.85;29.86;98101.94;1729049;82;21622;-65
2021/05/31 14:26:32;;;;;;;4.00;0.90;;;;;;;21.94;29.13;98101.13;1729885;82;21154;-65
2021/05/31 14:28:59;;;;;;;2.75;1.20;;;;;;;21.59;29.66;98099.84;1751553;81;21080;-63
2021/05/31 14:31:26;;;;;;;3.33;1.15;;;;;;;21.04;30.31;98097.73;1744707;81;21163;-63
2021/05/31 14:33:53;;;;;;;3.00;0.95;;;;;;;20.44;31.49;98109.12;1730095;82;21240;-63
2021/05/31 14:36:24;;;;;;;3.52;1.10;;;;;;;19.79;33.93;98111.84;1730555;82;21132;-65
2021/05/31 14:38:50;;;;;;;4.00;1.10;;;;;;;19.23;36.65;98112.36;1731292;82;21633;-63
2021/05/31 14:41:17;;;;;;;3.90;1.30;;;;;;;18.82;38.82;98120.78;1732298;81;21491;-68
2021/05/31 14:43:45;;;;;;;4.75;1.70;;;;;;;18.48;40.38;98109.05;1731580;82;21579;-68
2021/05/31 14:46:13;;;;;;;6.15;1.60;;;;;;;18.21;41.46;98115.86;1732066;81;20989;-67
2021/05/31 14:48:43;;;;;;;7.28;1.80;;;;;;;18.01;42.66;98108.61;1731556;82;21005;-69
2021/05/31 14:51:11;;;;;;;7.87;1.62;;;;;;;17.82;43.39;98115.09;1731186;82;21063;-69
2021/05/31 14:53:41;;;;;;;3.12;1.72;;;;;;;17.64;43.92;98122.03;1731607;82;21665;-67
2021/05/31 14:56:08;;;;;;;5.00;1.55;;;;;;;17.49;44.84;98128.04;1741126;81;21082;-66
2021/05/31 14:58:36;;;;;;;7.80;2.35;;;;;;;17.36;45.57;98127.73;1761792;81;20897;-66
2021/05/31 15:01:04;;;;;;;3.90;1.70;;;;;;;17.22;45.94;98128.55;1761859;81;20965;-67
2021/05/31 15:03:31;;;;;;;5.80;2.05;;;;;;;17.10;46.32;98125.77;1761890;81;21122;-70
2021/05/31 15:05:59;;;;;;;7.78;1.72;;;;;;;16.99;46.78;98129.99;1762065;81;21017;-70
2021/05/31 15:08:27;;;;;;;6.33;1.75;;;;;;;16.88;47.63;98117.98;1755350;79;21487;-69
2021/05/31 15:10:55;;;;;;;4.55;1.70;;;;;;;16.79;47.49;98121.30;1739047;82;21531;-66
2021/05/31 15:13:23;;;;;;;4.90;1.65;;;;;;;16.75;47.80;98120.34;1718320;83;21373;-68
2021/05/31 15:15:51;;;;;;;5.00;1.70;;;;;;;17.04;47.72;98125.75;1674203;85;21575;-65
2021/05/31 15:18:20;;;;;;;4.87;1.47;;;;;;;17.38;46.79;98120.06;1676915;84;21658;-71
2021/05/31 15:20:47;;;;;;;5.28;1.60;;;;;;;17.68;45.75;98128.39;1718547;83;21329;-66
2021/05/31 15:23:14;;;;;;;5.47;1.42;;;;;;;17.83;45.44;98123.47;1718318;83;20922;-67
2021/05/31 15:25:42;;;;;;;7.37;1.50;;;;;;;17.96;44.89;98130.50;1718316;83;20997;-67
2021/05/31 15:28:10;;;;;;;5.87;1.52;;;;;;;18.02;44.48;98131.86;1718604;83;21021;-67
2021/05/31 15:30:37;;;;;;;3.92;1.55;;;;;;;17.91;44.55;98127.99;1725478;82;21509;-67
2021/05/31 15:33:04;;;;;;;5.92;1.70;;;;;;;17.72;45.09;98132.56;1748135;82;21064;-69
2021/05/31 15:35:32;;;;;;;8.75;1.50;;;;;;;17.47;44.87;98135.70;1748019;82;20985;-68
2021/05/31 15:37:59;;;;;;;4.08;1.52;;;;;;;17.13;44.93;98145.98;1717149;83;21182;-66
2021/05/31 15:40:26;;;;;;;6.97;1.65;;;;;;;16.86;45.33;98147.27;1718364;83;20961;-69
2021/05/31 15:42:53;;;;;;;3.52;1.37;;;;;;;16.67;45.76;98139.58;1718408;83;20985;-69
2021/05/31 15:45:22;;;;;;;11.60;1.85;;;;;;;16.49;46.03;98132.61;1720989;82;21069;-69
2021/05/31 15:47:49;;;;;;;4.90;1.70;;;;;;;16.35;46.71;98138.79;1718213;83;20981;-68
2021/05/31 15:50:19;;;;;;;4.35;1.42;;;;;;;16.23;47.43;98140.82;1718383;83;20946;-67
2021/05/31 15:52:46;;;;;;;5.12;1.75;;;;;;;16.08;47.16;98139.20;1720887;82;20954;-67
2021/05/31 15:55:20;;;;;;;5.87;1.50;;;;;;;15.91;47.64;98137.34;1748026;82;20958;-66
2021/05/31 15:57:45;;;;;;;6.75;1.82;;;;;;;15.83;48.04;98134.08;1748041;82;21008;-64
2021/05/31 16:00:14;;;;;;;9.55;1.62;;;;;;;15.77;47.77;98137.27;1748191;82;21579;-66
2021/05/31 16:02:41;;;;;;;10.82;1.57;;;;;;;15.74;48.38;98135.45;1748007;82;21024;-66
2021/05/31 16:05:11;;;;;;;3.02;1.47;;;;;;;15.69;49.11;98136.97;1748157;82;20942;-65
2021/05/31 16:07:38;;;;;;;2.95;1.47;;;;;;;15.62;48.84;98133.16;1745125;82;21540;-68
2021/05/31 16:10:08;;;;;;;5.87;1.55;;;;;;;15.56;49.51;98137.14;1753961;81;21077;-67
2021/05/31 16:12:36;;;;;;;3.67;1.40;;;;;;;15.51;49.34;98140.80;1753887;81;20910;-67
2021/05/31 16:15:05;;;;;;;5.97;1.45;;;;;;;15.40;49.05;98134.08;1702555;84;21150;-66
2021/05/31 16:17:31;;;;;;;7.35;1.40;;;;;;;15.28;48.95;98142.59;1702426;84;21058;-67
2021/05/31 16:19:59;;;;;;;2.37;1.22;;;;;;;15.17;49.63;98139.97;1702592;84;21050;-69
2021/05/31 16:22:29;;;;;;;3.15;1.32;;;;;;;15.14;50.20;98142.74;1704537;82;20998;-68
2021/05/31 16:27:40;;;;;;;3.65;1.47;;;;;;;15.12;50.98;98137.42;1725048;82;21564;-68
2021/05/31 16:30:08;;;;;;;5.33;1.60;;;;;;;15.06;50.90;98142.16;1731742;82;20896;-69